Lake Dalecarlia, Indiana
Current Conditions -  °F | °C
As of 5:15 AM on Saturday 22 Nov 2014 (Local Time) from KIGQ Reporting Station
Light Rain Light Rain  
Wind Chill: 26°   Ceiling: 900
Heat Index: 34°   Visibility: 3mi
Dew Point: 33°   Wind: 9mph
Humidity: 95%   Direction: 210°SSW
Pressure: 30.1"   Gusts: NA
Location:  41.2585°N, 87.4193°W
Report Text: KIGQ 221115Z AUTO 21008KT 3SM -RA BKN009 OVC016 01/00 A3010 RMK AO2 P0001 T00100003
Loading
Personal Weather Stations






























Interactive Weather Map New forecast layout! Learn more

10-Day Weather Forecast

Advertisements
Track Severe Weather on mobile